createdAt,value
2019-05-12T00:03:42.573Z,96.68
2019-05-12T00:08:48.843Z,95.76
2019-05-12T00:13:53.395Z,95.08
2019-05-12T00:18:59.284Z,94.67
2019-05-12T00:24:08.725Z,94.95
2019-05-12T00:29:13.177Z,95.83
2019-05-12T00:34:18.417Z,94.89
2019-05-12T00:39:24.115Z,93.49
2019-05-12T00:44:28.633Z,93.68
2019-05-12T00:49:32.998Z,87.63
2019-05-12T00:54:38.125Z,87.53
2019-05-12T00:59:42.465Z,89.19
2019-05-12T01:04:48.720Z,89.46
2019-05-12T01:09:52.943Z,91.43
2019-05-12T01:14:58.531Z,90.58
2019-05-12T01:20:02.974Z,89.78
2019-05-12T01:25:08.606Z,89.59
2019-05-12T01:30:13.646Z,87.68
2019-05-12T01:35:18.524Z,86.59
2019-05-12T01:40:23.062Z,89.54
2019-05-12T01:45:28.859Z,88.64
2019-05-12T01:50:33.449Z,89.25
2019-05-12T01:55:38.971Z,89.03
2019-05-12T02:00:45.431Z,90.37
2019-05-12T02:05:51.452Z,87.43
2019-05-12T02:11:00.134Z,88.26
2019-05-12T02:16:04.468Z,89.94
2019-05-12T02:21:08.822Z,89.04
2019-05-12T02:26:13.187Z,89.69
2019-05-12T02:31:20.788Z,87.97
2019-05-12T02:36:25.780Z,90.23
2019-05-12T02:41:29.659Z,90.13
2019-05-12T02:46:34.771Z,91.72
2019-05-12T02:51:39.642Z,90.19
2019-05-12T02:56:45.770Z,92.78
2019-05-12T03:01:55.021Z,93.89
2019-05-12T03:07:06.166Z,93.33
2019-05-12T03:12:08.486Z,94.63
2019-05-12T03:17:15.360Z,94.02
2019-05-12T03:22:18.942Z,92.33
2019-05-12T03:27:25.653Z,92.38
2019-05-12T03:32:29.369Z,92.01
2019-05-12T03:37:35.317Z,92.18
2019-05-12T03:42:39.850Z,93.42
2019-05-12T03:47:45.544Z,92.40
2019-05-12T03:52:50.205Z,92.37
2019-05-12T03:57:55.209Z,90.72
2019-05-12T04:02:59.711Z,89.20
2019-05-12T04:08:05.744Z,89.17
2019-05-12T04:13:10.705Z,88.14
2019-05-12T04:18:16.070Z,89.16
2019-05-12T04:23:20.873Z,90.11
2019-05-12T04:28:25.262Z,89.21
2019-05-12T04:33:29.577Z,89.31
2019-05-12T04:38:35.484Z,89.82
2019-05-12T04:43:40.090Z,89.54
2019-05-12T04:48:45.423Z,89.44
2019-05-12T04:53:49.993Z,90.17
2019-05-12T04:58:54.768Z,87.12
2019-05-12T05:03:59.149Z,90.96
2019-05-12T05:09:05.636Z,87.98
2019-05-12T05:14:09.981Z,87.45
2019-05-12T05:19:14.405Z,88.25
2019-05-12T05:24:18.773Z,87.12
2019-05-12T05:29:24.017Z,87.99
2019-05-12T05:34:28.492Z,85.36
2019-05-12T05:39:35.723Z,87.37
2019-05-12T05:44:39.938Z,86.17
2019-05-12T05:49:44.297Z,86.51
2019-05-12T05:54:48.681Z,86.00
2019-05-12T05:59:53.785Z,84.90
2019-05-12T06:04:58.347Z,84.93
2019-05-12T06:10:04.082Z,83.98
2019-05-12T06:15:09.121Z,84.40
2019-05-12T06:20:13.861Z,84.36
2019-05-12T06:25:18.255Z,80.68
2019-05-12T06:30:24.285Z,81.21
2019-05-12T06:35:30.997Z,82.41
2019-05-12T06:40:40.816Z,82.09
2019-05-12T06:45:43.291Z,82.05
2019-05-12T06:50:47.080Z,83.77
2019-05-12T06:55:53.861Z,84.07
2019-05-12T07:01:02.401Z,83.09
2019-05-12T07:06:04.153Z,83.00
2019-05-12T07:11:08.661Z,81.63
2019-05-12T07:16:16.658Z,81.10
2019-05-12T07:21:24.193Z,80.76
2019-05-12T07:26:26.722Z,78.68
2019-05-12T07:31:31.171Z,78.23
2019-05-12T07:36:35.578Z,78.17
2019-05-12T07:41:42.470Z,80.00
2019-05-12T07:46:49.443Z,77.75
2019-05-12T07:51:54.221Z,77.75
2019-05-12T07:57:03.514Z,78.10
2019-05-12T08:02:04.721Z,76.90
2019-05-12T08:07:09.511Z,77.20
2019-05-12T08:12:19.071Z,74.71
2019-05-12T08:17:19.968Z,74.46
2019-05-12T08:22:29.178Z,74.44
2019-05-12T08:27:30.505Z,75.45
2019-05-12T08:32:34.865Z,74.23
2019-05-12T08:37:39.237Z,73.84
2019-05-12T08:42:43.878Z,72.27
2019-05-12T08:47:48.232Z,72.31
2019-05-12T08:52:53.864Z,72.81
2019-05-12T08:57:58.323Z,71.87
2019-05-12T09:03:03.553Z,70.90
2019-05-12T09:08:08.120Z,70.03
2019-05-12T09:13:14.419Z,70.04
2019-05-12T09:18:19.141Z,68.18
2019-05-12T09:23:24.042Z,68.56
2019-05-12T09:28:42.898Z,68.16
2019-05-12T09:33:35.709Z,68.94
2019-05-12T09:38:41.098Z,65.81
2019-05-12T09:43:50.288Z,64.90
2019-05-12T09:48:52.954Z,63.77
2019-05-12T09:53:57.801Z,63.86
2019-05-12T09:59:16.665Z,63.97
2019-05-12T10:04:10.245Z,61.73
2019-05-12T10:09:19.425Z,62.69
2019-05-12T10:14:20.641Z,61.71
2019-05-12T10:19:26.095Z,60.38
2019-05-12T10:24:32.556Z,58.02
2019-05-12T10:29:36.570Z,56.56
2019-05-12T10:34:41.024Z,54.79
2019-05-12T10:39:45.415Z,55.19
2019-05-12T10:44:49.776Z,54.79
2019-05-12T10:49:54.161Z,54.52
2019-05-12T10:54:58.592Z,53.55
2019-05-12T11:00:04.605Z,53.66
2019-05-12T11:05:12.533Z,53.76
2019-05-12T11:10:20.027Z,52.12
2019-05-12T11:15:25.369Z,51.87
2019-05-12T11:20:29.962Z,53.25
2019-05-12T11:25:34.338Z,49.94
2019-05-12T11:30:38.694Z,50.36
2019-05-12T11:35:43.605Z,51.71
2019-05-12T11:40:48.080Z,54.34
2019-05-12T11:45:53.459Z,50.71
2019-05-12T11:50:58.182Z,50.78
2019-05-12T11:56:07.680Z,49.96
2019-05-12T12:01:10.304Z,48.95
2019-05-12T12:06:14.630Z,48.39
2019-05-12T12:11:24.759Z,50.36
2019-05-12T12:16:25.024Z,48.69
2019-05-12T12:21:32.022Z,49.45
2019-05-12T12:26:37.286Z,49.10
2019-05-12T12:31:52.116Z,47.67
2019-05-12T12:36:56.487Z,46.50
2019-05-12T12:42:04.373Z,48.09
2019-05-12T12:47:08.572Z,47.87
2019-05-12T12:52:13.785Z,46.41
2019-05-12T12:57:19.228Z,45.80
2019-05-12T13:02:24.734Z,46.89
2019-05-12T13:07:30.426Z,45.96
2019-05-12T13:12:35.857Z,46.06
2019-05-12T13:17:41.904Z,45.41
2019-05-12T13:22:46.437Z,44.97
2019-05-12T13:27:50.826Z,45.27
2019-05-12T13:32:55.207Z,44.86
2019-05-12T13:38:00.567Z,44.32
2019-05-12T13:43:09.191Z,43.59
2019-05-12T13:48:15.767Z,43.74
2019-05-12T13:53:18.775Z,42.50
2019-05-12T13:58:28.222Z,42.16
2019-05-12T14:03:33.705Z,42.92
2019-05-12T14:08:44.595Z,41.91
2019-05-12T14:13:52.421Z,41.18
2019-05-12T14:19:00.288Z,40.36
2019-05-12T14:24:05.002Z,39.79
2019-05-12T14:29:09.349Z,40.84
2019-05-12T14:34:19.282Z,40.65
2019-05-12T14:39:19.889Z,40.27
2019-05-12T14:44:24.395Z,39.51
2019-05-12T14:49:30.468Z,40.23
2019-05-12T14:54:35.140Z,40.36
2019-05-12T14:59:41.240Z,39.98
2019-05-12T15:04:45.799Z,39.97
2019-05-12T15:09:53.915Z,40.47
2019-05-12T15:14:57.144Z,39.56
2019-05-12T15:20:06.646Z,40.14
2019-05-12T15:25:07.681Z,40.52
2019-05-12T15:30:20.191Z,40.47
2019-05-12T15:35:18.676Z,40.16
2019-05-12T15:40:23.657Z,39.63
2019-05-12T15:45:28.334Z,39.77
2019-05-12T15:50:34.183Z,38.81
2019-05-12T15:55:38.745Z,38.40
2019-05-12T16:00:43.802Z,39.00
2019-05-12T16:05:48.348Z,38.44
2019-05-12T16:10:53.626Z,38.78
2019-05-12T16:16:03.551Z,39.60
2019-05-12T16:21:09.212Z,39.12
2019-05-12T16:26:14.670Z,39.71
2019-05-12T16:31:18.111Z,40.07
2019-05-12T16:36:22.458Z,40.71
2019-05-12T16:41:29.817Z,40.66
2019-05-12T16:46:33.957Z,41.05
2019-05-12T16:51:39.132Z,40.93
2019-05-12T16:56:43.490Z,40.50
2019-05-12T17:01:47.916Z,41.42
2019-05-12T17:06:52.273Z,41.72
2019-05-12T17:11:56.673Z,44.24
2019-05-12T17:17:01.021Z,43.43
2019-05-12T17:22:05.397Z,41.55
2019-05-12T17:27:15.869Z,41.79
2019-05-12T17:32:17.334Z,42.31
2019-05-12T17:37:36.345Z,43.42
2019-05-12T17:42:38.509Z,42.77
2019-05-12T17:47:44.857Z,43.06
2019-05-12T17:52:56.885Z,42.70
2019-05-12T17:58:03.670Z,42.32
2019-05-12T18:03:25.990Z,42.88
2019-05-12T18:08:38.144Z,42.77
2019-05-12T18:13:40.245Z,42.17
2019-05-12T18:18:45.934Z,43.23
2019-05-12T18:23:50.409Z,42.88
2019-05-12T18:28:59.177Z,43.61
2019-05-12T18:34:04.989Z,43.55
2019-05-12T18:39:11.860Z,43.53
2019-05-12T18:44:25.396Z,43.45
2019-05-12T18:49:23.883Z,43.25
2019-05-12T18:54:27.777Z,43.75
2019-05-12T18:59:34.003Z,44.45
2019-05-12T19:04:39.839Z,43.91
2019-05-12T19:09:47.108Z,44.09
2019-05-12T19:14:52.571Z,44.35
2019-05-12T19:19:59.934Z,44.20
2019-05-12T19:25:04.012Z,44.38
2019-05-12T19:30:08.767Z,44.49
2019-05-12T19:35:20.033Z,44.72
2019-05-12T19:40:21.242Z,44.46
2019-05-12T19:45:25.604Z,45.00
2019-05-12T19:50:30.010Z,45.24
2019-05-12T19:55:34.478Z,44.62
2019-05-12T20:00:38.865Z,45.23
2019-05-12T20:05:43.477Z,45.04
2019-05-12T20:10:49.731Z,45.01
2019-05-12T20:15:54.499Z,44.75
2019-05-12T20:20:58.924Z,44.65
2019-05-12T20:26:04.015Z,44.13
2019-05-12T20:31:08.704Z,43.88
2019-05-12T20:36:14.250Z,43.06
2019-05-12T20:41:23.476Z,42.57
2019-05-12T20:46:29.336Z,42.93
2019-05-12T20:51:35.495Z,42.54
2019-05-12T20:56:43.488Z,42.89
2019-05-12T21:01:50.341Z,42.94
2019-05-12T21:06:57.265Z,43.19
2019-05-12T21:12:01.639Z,43.36
2019-05-12T21:17:15.797Z,43.13
2019-05-12T21:22:17.444Z,43.41
2019-05-12T21:27:22.951Z,43.44
2019-05-12T21:32:28.877Z,43.65
2019-05-12T21:37:37.025Z,44.36
2019-05-12T21:42:39.532Z,44.29
2019-05-12T21:47:44.570Z,44.95
2019-05-12T21:52:49.001Z,44.68
2019-05-12T21:57:53.831Z,45.03
2019-05-12T22:03:02.667Z,45.40
2019-05-12T22:08:06.776Z,45.48
2019-05-12T22:13:17.590Z,45.04
2019-05-12T22:18:18.379Z,45.42
2019-05-12T22:23:24.750Z,45.45
2019-05-12T22:28:28.794Z,45.70
2019-05-12T22:33:33.489Z,45.66
2019-05-12T22:38:38.147Z,45.16
2019-05-12T22:43:45.671Z,45.63
2019-05-12T22:48:48.624Z,45.50
2019-05-12T22:53:53.906Z,45.87
2019-05-12T22:58:59.998Z,46.17
2019-05-12T23:04:04.474Z,46.99
2019-05-12T23:09:08.828Z,47.42
2019-05-12T23:14:20.531Z,46.95
2019-05-12T23:19:19.406Z,47.51
2019-05-12T23:24:23.865Z,47.83
2019-05-12T23:29:31.000Z,47.54
2019-05-12T23:34:34.377Z,48.25
2019-05-12T23:39:39.906Z,48.49
2019-05-12T23:44:44.431Z,48.50
2019-05-12T23:49:48.789Z,48.80
2019-05-12T23:54:54.223Z,49.57
2019-05-12T23:59:58.696Z,49.41
